Time;durP1;ratioP1;P1;durP2;ratioP2;P2;SDS_P1;SDS_P2;PMS_P1;PMS_P2;Temp;Humidity;BMP_temperature;BMP_pressure;BME280_temperature;BME280_humidity;BME280_pressure;Samples;Min_cycle;Max_cycle;Signal;HPM_P1;HPM_P2
2022/06/11 00:02:02;;;;;;;4.72;1.10;;;;;;;17.89;33.63;92948.97;4790319;30;20043;-75
2022/06/11 00:04:38;;;;;;;8.07;1.45;;;;;;;17.89;34.04;92948.19;4790226;29;20108;-75
2022/06/11 00:07:31;;;;;;;5.22;1.10;;;;;;;17.80;34.11;92948.22;4791295;29;20044;-75
2022/06/11 00:09:56;;;;;;;2.63;1.10;;;;;;;17.72;34.43;92946.41;4782435;29;20055;-75
2022/06/11 00:12:22;;;;;;;4.82;1.20;;;;;;;17.69;34.16;92942.50;4790100;30;20425;-75
2022/06/11 00:14:49;;;;;;;3.75;1.15;;;;;;;17.63;34.02;92954.38;4790040;30;20455;-75
2022/06/11 00:17:17;;;;;;;4.80;1.20;;;;;;;17.74;33.36;92951.34;4775349;30;20035;-75
2022/06/11 00:19:43;;;;;;;3.75;1.33;;;;;;;17.72;33.61;92948.25;4790755;29;20038;-75
2022/06/11 00:22:11;;;;;;;6.00;1.17;;;;;;;17.67;33.86;92955.28;4788629;29;20039;-75
2022/06/11 00:24:38;;;;;;;2.15;1.05;;;;;;;17.67;33.71;92949.19;4787554;30;20045;-74
2022/06/11 00:27:04;;;;;;;2.00;1.05;;;;;;;17.68;33.30;92958.72;4787249;30;20040;-74
2022/06/11 00:29:33;;;;;;;4.63;1.10;;;;;;;17.67;33.43;92950.00;4788654;29;20135;-75
2022/06/11 00:31:59;;;;;;;5.03;1.05;;;;;;;17.63;33.79;92959.66;4786542;30;20048;-75
2022/06/11 00:34:25;;;;;;;3.85;1.20;;;;;;;17.60;34.15;92955.00;4787118;30;20039;-74
2022/06/11 00:36:51;;;;;;;3.72;1.48;;;;;;;17.57;33.66;92960.94;4785529;29;20130;-74
2022/06/11 00:39:20;;;;;;;2.05;1.00;;;;;;;17.56;33.75;92964.69;4783394;30;20039;-75
2022/06/11 00:41:49;;;;;;;3.97;1.30;;;;;;;17.55;33.82;92965.75;4786324;29;20040;-74
2022/06/11 00:44:15;;;;;;;3.08;1.30;;;;;;;17.54;33.49;92958.13;4786224;29;20047;-75
2022/06/11 00:47:03;;;;;;;1.45;1.00;;;;;;;17.56;33.53;92954.09;4786017;30;20521;-75
2022/06/11 00:49:43;;;;;;;2.63;1.00;;;;;;;17.54;33.43;92948.34;4786986;29;20039;-75
2022/06/11 00:52:32;;;;;;;1.58;0.98;;;;;;;17.54;33.47;92937.75;4785758;29;20039;-75
2022/06/11 00:55:10;;;;;;;2.88;1.02;;;;;;;17.52;34.04;92945.22;4785215;30;20039;-75
2022/06/11 00:57:41;;;;;;;3.35;1.20;;;;;;;17.46;33.71;92943.84;4787699;29;20050;-75
2022/06/11 01:00:15;;;;;;;2.70;1.60;;;;;;;17.52;33.28;92942.59;4787818;30;20047;-75
2022/06/11 01:02:43;;;;;;;1.83;1.00;;;;;;;17.49;33.17;92937.91;4787722;29;20047;-75
2022/06/11 01:05:14;;;;;;;2.70;1.20;;;;;;;17.51;33.18;92930.44;4785659;30;20494;-75
2022/06/11 01:07:55;;;;;;;2.83;1.10;;;;;;;17.43;33.73;92928.63;4784126;29;20043;-75
2022/06/11 01:10:23;;;;;;;5.30;1.20;;;;;;;17.36;33.76;92934.41;4785473;30;20096;-75
2022/06/11 01:13:13;;;;;;;2.90;1.10;;;;;;;17.32;33.88;92932.69;4779760;30;20199;-75
2022/06/11 01:15:45;;;;;;;1.83;1.08;;;;;;;17.31;33.36;92936.44;4778903;29;20509;-75
2022/06/11 01:18:40;;;;;;;3.28;1.20;;;;;;;17.29;33.70;92934.09;4786421;30;20046;-74
2022/06/11 01:21:57;;;;;;;2.35;1.13;;;;;;;17.26;32.98;92932.84;4786882;29;20514;-74
2022/06/11 01:24:38;;;;;;;2.80;1.10;;;;;;;17.28;33.02;92930.66;4712655;30;20048;-73
2022/06/11 01:27:04;;;;;;;3.50;1.10;;;;;;;17.22;33.06;92929.28;4787465;29;20043;-74
2022/06/11 01:29:46;;;;;;;3.65;1.00;;;;;;;17.19;32.99;92924.63;4787484;29;20036;-74
2022/06/11 01:32:20;;;;;;;1.58;1.00;;;;;;;17.19;32.44;92931.81;4787196;29;20097;-74
2022/06/11 01:35:05;;;;;;;2.25;1.20;;;;;;;17.25;32.30;92931.31;4786802;29;20089;-74
2022/06/11 01:37:43;;;;;;;1.88;1.00;;;;;;;17.27;32.11;92929.13;4786328;29;20040;-74
2022/06/11 01:40:20;;;;;;;4.22;1.08;;;;;;;17.23;32.78;92925.56;4786291;30;20067;-74
2022/06/11 01:42:51;;;;;;;2.58;1.08;;;;;;;17.22;32.30;92926.63;4786237;30;20043;-74
2022/06/11 01:45:30;;;;;;;3.00;1.10;;;;;;;17.14;33.05;92927.47;4785667;30;20538;-74
2022/06/11 01:47:58;;;;;;;4.75;1.20;;;;;;;17.04;33.61;92930.44;4785755;30;20506;-75
2022/06/11 01:50:27;;;;;;;2.67;1.00;;;;;;;16.94;34.00;92928.13;4785639;30;20042;-74
2022/06/11 01:53:23;;;;;;;3.28;1.40;;;;;;;16.83;34.61;92928.44;4786080;29;20513;-74
2022/06/11 01:56:08;;;;;;;2.05;0.98;;;;;;;16.72;35.04;92932.47;4786892;29;20134;-74
2022/06/11 01:58:56;;;;;;;2.42;1.10;;;;;;;16.59;35.12;92925.50;4786935;30;20046;-74
2022/06/11 02:01:44;;;;;;;3.97;1.00;;;;;;;16.49;35.42;92928.47;4785784;30;20522;-74
2022/06/11 02:04:31;;;;;;;3.33;1.15;;;;;;;16.40;35.88;92941.66;4785529;30;20092;-75
2022/06/11 02:07:18;;;;;;;2.25;1.05;;;;;;;16.31;35.25;92938.25;4785483;29;20043;-74
2022/06/11 02:10:03;;;;;;;1.80;0.90;;;;;;;16.25;35.53;92932.34;4785924;29;20109;-74
2022/06/11 02:12:49;;;;;;;1.42;0.80;;;;;;;16.18;36.14;92934.66;4785405;30;20535;-74
2022/06/11 02:15:34;;;;;;;4.20;1.20;;;;;;;16.13;34.96;92932.94;4785816;29;20118;-74
2022/06/11 02:18:05;;;;;;;1.70;0.88;;;;;;;16.22;34.05;92925.03;4785499;30;20081;-74
2022/06/11 02:20:40;;;;;;;2.40;0.90;;;;;;;16.22;33.44;92933.72;4785342;30;20428;-74
2022/06/11 02:23:05;;;;;;;2.60;1.00;;;;;;;16.27;32.83;92937.31;4784140;30;20450;-74
2022/06/11 02:25:42;;;;;;;2.63;1.08;;;;;;;16.29;32.66;92925.34;4786441;29;20070;-74
2022/06/11 02:28:11;;;;;;;2.47;1.00;;;;;;;16.36;32.14;92930.94;4786739;29;20046;-74
2022/06/11 02:30:40;;;;;;;2.60;1.10;;;;;;;16.32;32.48;92931.88;4786566;29;20401;-74
2022/06/11 02:33:10;;;;;;;2.13;1.08;;;;;;;16.29;33.15;92929.84;4785943;30;20039;-74
2022/06/11 02:35:39;;;;;;;1.27;0.80;;;;;;;16.23;33.50;92937.13;4785010;29;20134;-74
2022/06/11 02:38:11;;;;;;;2.40;0.90;;;;;;;16.16;33.61;92927.03;4783241;29;20071;-74
2022/06/11 02:40:46;;;;;;;2.92;1.15;;;;;;;16.19;35.74;92928.31;4784401;30;20043;-74
2022/06/11 02:43:14;;;;;;;7.05;1.50;;;;;;;16.13;37.59;92942.75;4785955;29;20116;-74
2022/06/11 02:45:39;;;;;;;3.53;1.48;;;;;;;16.01;38.23;92932.78;4785627;29;20510;-74
2022/06/11 02:48:06;;;;;;;2.72;1.10;;;;;;;15.90;38.10;92940.22;4786262;29;20049;-74
2022/06/11 02:50:35;;;;;;;5.07;1.20;;;;;;;15.77;38.05;92939.25;4785161;30;20113;-74
2022/06/11 02:53:04;;;;;;;2.67;1.30;;;;;;;15.62;38.15;92939.63;4785152;30;20035;-74
2022/06/11 02:55:30;;;;;;;3.42;1.15;;;;;;;15.47;37.96;92940.84;4785942;30;20043;-74
2022/06/11 02:57:56;;;;;;;3.22;1.08;;;;;;;15.35;37.96;92940.63;4784750;30;20108;-74
2022/06/11 03:00:26;;;;;;;3.33;1.20;;;;;;;15.27;37.33;92933.47;4784614;30;20068;-74
2022/06/11 03:02:52;;;;;;;2.30;0.90;;;;;;;15.15;38.33;92939.28;4785956;29;20071;-74
2022/06/11 03:05:22;;;;;;;2.40;0.85;;;;;;;15.04;39.00;92933.50;4785789;29;20071;-74
2022/06/11 03:07:48;;;;;;;2.00;0.90;;;;;;;14.97;38.99;92935.78;4783920;30;20039;-74
2022/06/11 03:10:16;;;;;;;1.90;1.00;;;;;;;14.90;38.92;92938.84;4784707;30;20039;-74
2022/06/11 03:12:42;;;;;;;2.55;1.00;;;;;;;14.85;39.17;92940.84;4784636;30;20070;-74
2022/06/11 03:15:08;;;;;;;2.70;1.20;;;;;;;14.77;39.75;92944.97;4785636;29;20426;-74
2022/06/11 03:17:34;;;;;;;4.20;1.17;;;;;;;14.71;39.65;92949.59;4785836;29;20462;-74
2022/06/11 03:20:00;;;;;;;3.60;1.10;;;;;;;14.69;38.95;92945.69;4785855;29;20047;-74
2022/06/11 03:22:26;;;;;;;5.60;1.30;;;;;;;14.64;39.05;92953.72;4784025;29;20047;-74
2022/06/11 03:24:52;;;;;;;2.60;1.00;;;;;;;14.57;38.65;92943.59;4785231;29;20365;-74
2022/06/11 03:27:19;;;;;;;3.63;0.85;;;;;;;14.55;38.96;92956.31;4769062;30;20620;-74
2022/06/11 03:29:45;;;;;;;3.13;1.02;;;;;;;14.52;38.74;92948.94;4784136;30;20070;-74
2022/06/11 03:32:11;;;;;;;3.60;1.10;;;;;;;14.50;38.75;92959.00;4784985;29;20446;-74
2022/06/11 03:34:37;;;;;;;2.38;1.00;;;;;;;14.45;38.61;92959.91;4785058;29;20104;-74
2022/06/11 03:37:04;;;;;;;2.00;0.93;;;;;;;14.43;39.02;92953.38;4783429;30;20102;-74
2022/06/11 03:39:30;;;;;;;3.00;1.17;;;;;;;14.37;39.86;92950.09;4784696;29;20043;-74
2022/06/11 03:41:56;;;;;;;2.00;0.93;;;;;;;14.34;39.40;92955.94;4784442;30;20343;-74
2022/06/11 03:44:23;;;;;;;2.20;1.00;;;;;;;14.30;39.09;92955.75;4785355;29;20139;-74
2022/06/11 03:46:48;;;;;;;2.20;1.00;;;;;;;14.30;38.46;92955.75;4784359;30;20047;-74
2022/06/11 03:49:15;;;;;;;0.90;0.75;;;;;;;14.27;39.11;92956.34;4784286;30;20046;-74
2022/06/11 03:51:41;;;;;;;0.80;0.75;;;;;;;14.27;38.74;92956.34;4784654;30;20046;-73
2022/06/11 03:54:07;;;;;;;1.25;0.90;;;;;;;14.23;39.27;92958.03;4785690;29;20047;-74
2022/06/11 03:56:34;;;;;;;2.13;1.02;;;;;;;14.22;39.39;92961.72;4785897;29;20062;-74
2022/06/11 03:59:00;;;;;;;1.67;0.90;;;;;;;14.21;39.84;92959.38;4772918;30;20055;-74
2022/06/11 04:01:28;;;;;;;2.70;1.00;;;;;;;14.16;39.40;92961.06;4789327;29;20050;-74
2022/06/11 04:04:00;;;;;;;3.30;1.15;;;;;;;14.20;39.98;92965.72;4788743;29;20039;-74
2022/06/11 04:06:39;;;;;;;2.63;0.98;;;;;;;14.18;40.09;92968.66;4787737;29;20061;-74
2022/06/11 04:09:09;;;;;;;3.83;1.20;;;;;;;14.18;40.68;92970.50;4788909;29;20380;-74
2022/06/11 04:11:35;;;;;;;2.05;1.10;;;;;;;14.15;40.89;92974.53;4787623;30;20550;-74
2022/06/11 04:14:01;;;;;;;2.13;1.02;;;;;;;14.13;40.95;92971.41;4787334;30;20045;-74
2022/06/11 04:16:31;;;;;;;5.55;1.40;;;;;;;14.12;40.99;92970.63;4788883;29;20122;-74
2022/06/11 04:18:59;;;;;;;5.07;1.00;;;;;;;14.13;41.95;92972.19;4788687;29;20175;-74
2022/06/11 04:21:25;;;;;;;2.47;1.20;;;;;;;14.14;42.26;92978.25;4787911;29;20037;-74
2022/06/11 04:23:54;;;;;;;2.80;1.17;;;;;;;14.12;43.54;92983.03;4787371;30;20523;-73
2022/06/11 04:26:25;;;;;;;3.00;1.40;;;;;;;14.12;43.83;92981.16;4788650;29;20412;-74
2022/06/11 04:28:51;;;;;;;1.98;1.20;;;;;;;14.12;44.33;92980.38;4788507;30;20047;-74
2022/06/11 04:31:18;;;;;;;3.78;1.05;;;;;;;14.13;44.75;92987.97;4788268;29;20414;-73
2022/06/11 04:33:47;;;;;;;2.63;1.00;;;;;;;14.17;44.30;92982.91;4787048;30;20090;-74
2022/06/11 04:36:14;;;;;;;4.70;1.20;;;;;;;14.23;45.26;92987.00;4787483;29;20039;-74
2022/06/11 04:38:40;;;;;;;2.03;1.10;;;;;;;14.29;46.07;92980.53;4788179;29;20049;-74
2022/06/11 04:41:07;;;;;;;3.28;1.20;;;;;;;14.34;46.37;92982.25;4786096;29;20394;-74
2022/06/11 04:43:34;;;;;;;4.38;1.30;;;;;;;14.39;46.34;92995.34;4787143;29;20070;-74
2022/06/11 04:46:00;;;;;;;5.13;1.33;;;;;;;14.43;46.19;92996.28;4787053;29;20054;-74
2022/06/11 04:48:27;;;;;;;3.15;1.67;;;;;;;14.49;45.84;92995.09;4787176;29;20465;-74
2022/06/11 04:50:53;;;;;;;6.38;1.30;;;;;;;14.55;45.59;92993.94;4770458;30;20093;-74
2022/06/11 04:53:18;;;;;;;3.42;1.10;;;;;;;14.61;45.79;92985.94;4786974;29;20067;-74
2022/06/11 04:55:45;;;;;;;4.05;1.30;;;;;;;14.66;45.79;92994.50;4787724;29;20126;-74
2022/06/11 04:58:11;;;;;;;2.72;1.10;;;;;;;14.71;46.24;92994.38;4788133;29;20104;-74
2022/06/11 05:00:37;;;;;;;2.40;1.13;;;;;;;14.86;45.54;92997.72;4787771;29;20035;-74
2022/06/11 05:03:03;;;;;;;2.67;1.23;;;;;;;15.01;45.82;93000.00;4784558;30;20510;-74
2022/06/11 05:05:29;;;;;;;3.42;1.20;;;;;;;15.07;46.46;92998.81;4785590;30;20055;-74
2022/06/11 05:07:56;;;;;;;2.03;1.00;;;;;;;15.13;46.83;93007.38;4786120;29;20046;-74
2022/06/11 05:10:25;;;;;;;2.85;1.00;;;;;;;15.17;46.45;92998.56;4787535;29;20033;-74
2022/06/11 05:12:51;;;;;;;2.10;1.20;;;;;;;15.23;46.85;93001.84;4787612;29;20035;-74
2022/06/11 05:15:17;;;;;;;4.22;1.27;;;;;;;15.29;47.03;93000.66;4786284;30;20138;-74
2022/06/11 05:17:43;;;;;;;3.60;1.13;;;;;;;15.32;48.00;93005.31;4787533;30;20122;-74
2022/06/11 05:20:10;;;;;;;5.75;1.30;;;;;;;15.40;47.59;93009.06;4767431;30;20051;-74
2022/06/11 05:22:37;;;;;;;2.08;1.30;;;;;;;15.46;47.28;93005.22;4769690;30;20109;-74
2022/06/11 05:25:04;;;;;;;3.13;1.30;;;;;;;15.51;47.30;93005.09;4769635;30;20043;-74
2022/06/11 05:27:31;;;;;;;1.80;1.08;;;;;;;15.58;48.18;93013.38;4768257;30;20035;-75
2022/06/11 05:29:59;;;;;;;3.58;1.90;;;;;;;15.65;48.44;93012.94;4756179;30;20040;-74
2022/06/11 05:32:29;;;;;;;2.13;1.10;;;;;;;15.75;48.58;93011.91;4769454;30;20040;-74
2022/06/11 05:34:57;;;;;;;2.13;1.05;;;;;;;15.85;49.22;93010.84;4773170;30;20039;-74
2022/06/11 05:37:23;;;;;;;2.65;1.15;;;;;;;16.01;50.50;93015.41;4787415;29;20041;-74
2022/06/11 05:39:49;;;;;;;5.35;1.30;;;;;;;16.19;49.34;93012.81;4771024;30;20055;-74
2022/06/11 05:42:18;;;;;;;4.30;1.40;;;;;;;16.43;49.46;93018.44;4770942;30;20127;-74
2022/06/11 05:44:45;;;;;;;4.45;1.20;;;;;;;16.93;49.42;93024.41;4785846;30;20136;-75
2022/06/11 05:47:14;;;;;;;4.15;1.40;;;;;;;17.77;47.61;93016.94;4770662;30;20035;-75
2022/06/11 05:49:45;;;;;;;2.80;1.10;;;;;;;18.61;45.85;93015.25;4786202;29;20043;-75
2022/06/11 05:52:18;;;;;;;5.15;1.35;;;;;;;19.46;44.71;93023.94;4787231;30;20427;-75
2022/06/11 05:54:46;;;;;;;2.83;1.35;;;;;;;20.17;43.08;93015.63;4785973;29;20513;-75
2022/06/11 05:57:15;;;;;;;6.65;1.40;;;;;;;20.87;42.05;93019.97;4785349;29;20038;-75
2022/06/11 05:59:55;;;;;;;5.65;1.30;;;;;;;21.50;41.17;93019.41;4785791;29;20046;-76
2022/06/11 06:02:23;;;;;;;3.35;1.40;;;;;;;21.86;38.84;93019.53;4785921;29;20486;-76
2022/06/11 06:04:49;;;;;;;3.55;1.30;;;;;;;22.09;38.77;93022.38;4783483;30;20050;-75
2022/06/11 06:07:14;;;;;;;3.60;1.52;;;;;;;22.54;37.91;93021.94;4786692;29;20126;-76
2022/06/11 06:09:40;;;;;;;2.75;1.27;;;;;;;23.05;37.46;93024.53;4786792;29;20490;-76
2022/06/11 06:12:07;;;;;;;3.83;1.15;;;;;;;23.12;35.36;93031.94;4785913;29;20047;-76
2022/06/11 06:14:33;;;;;;;2.85;1.40;;;;;;;22.74;35.83;93020.09;4786574;29;20035;-76
2022/06/11 06:16:59;;;;;;;4.53;1.40;;;;;;;22.76;36.91;93027.72;4785496;30;20039;-76
2022/06/11 06:19:24;;;;;;;3.47;1.40;;;;;;;22.95;35.24;93024.31;4785139;29;20050;-76
2022/06/11 06:21:50;;;;;;;4.57;1.40;;;;;;;22.74;36.44;93025.44;4785067;30;20040;-76
2022/06/11 06:24:16;;;;;;;3.38;1.23;;;;;;;22.77;35.89;93034.63;4769550;30;20055;-76
2022/06/11 06:26:42;;;;;;;3.50;1.35;;;;;;;22.78;35.66;93026.25;4782946;29;20072;-75
2022/06/11 06:29:08;;;;;;;2.80;1.20;;;;;;;22.95;36.99;93035.00;4779375;29;20039;-76
2022/06/11 06:31:35;;;;;;;2.40;1.20;;;;;;;22.80;36.27;93028.56;4785170;29;20070;-76
2022/06/11 06:34:01;;;;;;;4.15;1.73;;;;;;;22.28;35.79;93029.72;4784321;30;20039;-76
2022/06/11 06:36:28;;;;;;;3.83;1.30;;;;;;;22.20;34.69;93040.19;4783299;30;20031;-75
2022/06/11 06:38:55;;;;;;;3.13;1.20;;;;;;;21.72;36.72;93035.97;4797481;29;20474;-75
2022/06/11 06:41:21;;;;;;;4.55;1.30;;;;;;;21.89;37.71;93046.28;4764735;30;20461;-75
2022/06/11 06:43:48;;;;;;;2.13;1.23;;;;;;;22.08;38.44;93042.94;4791966;29;20062;-75
2022/06/11 06:46:15;;;;;;;4.72;1.30;;;;;;;21.97;38.97;93041.91;4778131;29;20050;-75
2022/06/11 06:48:42;;;;;;;6.15;1.70;;;;;;;21.70;40.17;93046.19;4791550;29;20109;-75
2022/06/11 06:51:08;;;;;;;3.08;1.30;;;;;;;21.48;40.67;93042.19;4795555;29;20047;-75
2022/06/11 06:53:36;;;;;;;3.35;1.40;;;;;;;21.40;40.24;93047.31;4779446;29;20072;-74
2022/06/11 06:56:02;;;;;;;3.22;1.45;;;;;;;21.13;42.10;93048.84;4781831;30;20062;-74
2022/06/11 06:58:28;;;;;;;2.22;1.15;;;;;;;21.11;41.22;93048.41;4783043;30;20047;-74
2022/06/11 07:00:54;;;;;;;5.25;1.67;;;;;;;21.13;42.73;93050.75;4781780;30;20520;-74
2022/06/11 07:03:20;;;;;;;4.55;1.50;;;;;;;20.95;42.19;93055.56;4768231;30;20081;-74
2022/06/11 07:05:46;;;;;;;3.67;1.60;;;;;;;20.95;42.98;93053.66;4783583;30;20128;-74
2022/06/11 07:08:13;;;;;;;4.65;1.50;;;;;;;20.99;42.73;93051.88;4786322;29;20035;-74
2022/06/11 07:10:39;;;;;;;3.03;1.30;;;;;;;20.80;44.04;93057.03;4784681;30;20135;-74
2022/06/11 07:13:04;;;;;;;3.38;1.40;;;;;;;20.53;43.25;93058.47;4765828;30;20035;-74
2022/06/11 07:15:30;;;;;;;3.13;1.40;;;;;;;20.53;43.72;93056.56;4767583;30;20058;-74
2022/06/11 07:18:07;;;;;;;4.07;1.40;;;;;;;20.58;43.39;93066.28;4765737;30;20048;-74
2022/06/11 07:20:34;;;;;;;5.55;1.30;;;;;;;20.77;42.91;93060.34;4782565;30;20039;-74
2022/06/11 07:23:20;;;;;;;4.35;1.55;;;;;;;20.37;43.70;93061.03;4785011;29;20038;-74
2022/06/11 07:25:48;;;;;;;4.28;1.48;;;;;;;20.74;44.64;93059.16;4782982;30;20059;-74
2022/06/11 07:28:43;;;;;;;2.67;1.20;;;;;;;20.86;42.72;93066.31;4782071;29;20169;-75
2022/06/11 07:31:08;;;;;;;7.07;1.45;;;;;;;21.06;42.89;93066.50;4785524;29;20058;-75
2022/06/11 07:33:34;;;;;;;2.22;1.20;;;;;;;21.12;41.59;93060.63;4788343;30;20031;-75
2022/06/11 07:36:00;;;;;;;7.05;1.40;;;;;;;21.21;40.87;93061.25;4787157;29;20085;-76
2022/06/11 07:38:25;;;;;;;2.17;1.20;;;;;;;21.50;42.08;93061.25;4787271;29;20151;-75
2022/06/11 07:40:51;;;;;;;5.35;1.38;;;;;;;21.66;39.49;93072.75;4787960;30;20035;-75
2022/06/11 07:43:18;;;;;;;3.42;1.30;;;;;;;21.61;38.54;93071.06;4786578;30;20054;-75
2022/06/11 07:45:45;;;;;;;4.00;1.13;;;;;;;21.76;36.36;93069.56;4791435;29;20035;-75
2022/06/11 07:48:11;;;;;;;3.65;1.30;;;;;;;21.79;35.88;93068.09;4786952;29;20039;-75
2022/06/11 07:50:47;;;;;;;3.75;1.40;;;;;;;21.72;34.80;93068.69;4785438;29;20047;-75
2022/06/11 07:53:13;;;;;;;2.03;1.10;;;;;;;21.59;33.64;93070.66;4787873;29;20047;-75
2022/06/11 07:55:44;;;;;;;2.45;1.10;;;;;;;21.39;35.43;93067.06;4790028;29;20482;-77
2022/06/11 07:58:11;;;;;;;2.15;1.00;;;;;;;21.22;34.00;93062.00;4789097;29;20056;-77
2022/06/11 08:00:42;;;;;;;2.50;1.10;;;;;;;21.40;34.67;93065.97;4781309;29;20035;-77
2022/06/11 08:03:08;;;;;;;2.65;1.30;;;;;;;21.29;36.94;93069.44;4771523;30;20043;-77
2022/06/11 08:05:34;;;;;;;2.13;1.17;;;;;;;21.40;36.51;93076.63;4787081;30;20047;-77
2022/06/11 08:08:01;;;;;;;4.32;1.50;;;;;;;21.31;35.23;93075.97;4787183;30;20042;-77
2022/06/11 08:10:28;;;;;;;2.80;1.35;;;;;;;21.58;37.49;93074.44;4787783;29;20041;-78
2022/06/11 08:12:53;;;;;;;4.95;1.42;;;;;;;21.70;37.48;93076.25;4794767;29;20126;-78
2022/06/11 08:15:20;;;;;;;3.67;1.20;;;;;;;21.67;35.58;93081.50;4789152;29;20062;-78
2022/06/11 08:17:45;;;;;;;5.22;1.23;;;;;;;21.67;34.16;93071.63;4784612;29;20035;-77
2022/06/11 08:20:14;;;;;;;2.53;1.10;;;;;;;21.85;34.58;93073.97;4781345;29;20082;-78
2022/06/11 08:22:40;;;;;;;4.10;1.10;;;;;;;21.87;33.20;93074.41;4780384;30;20588;-77
2022/06/11 08:25:05;;;;;;;5.03;1.40;;;;;;;21.95;37.60;93076.13;4787591;30;20035;-77
2022/06/11 08:27:32;;;;;;;4.18;1.40;;;;;;;22.00;35.17;93084.66;4787036;30;20413;-76
2022/06/11 08:29:57;;;;;;;2.55;1.38;;;;;;;21.87;37.51;93082.41;4784873;29;20036;-77
2022/06/11 08:32:23;;;;;;;3.67;1.50;;;;;;;21.79;36.99;93082.19;4786450;29;20031;-77
2022/06/11 08:34:49;;;;;;;5.13;1.50;;;;;;;21.75;36.76;93084.03;4770242;30;20047;-76
2022/06/11 08:37:15;;;;;;;4.57;1.52;;;;;;;21.76;35.38;93085.56;4783383;29;20090;-77
2022/06/11 08:39:41;;;;;;;2.78;1.10;;;;;;;21.81;36.26;93081.88;4785605;30;20506;-77
2022/06/11 08:42:37;;;;;;;6.45;1.75;;;;;;;21.62;37.19;93090.53;4780892;29;20562;-77
2022/06/11 08:45:19;;;;;;;8.38;2.25;;;;;;;21.71;37.58;93087.72;4788343;30;20108;-77
2022/06/11 08:47:51;;;;;;;8.45;2.35;;;;;;;21.94;36.99;93090.56;4788455;29;20041;-76
2022/06/11 08:50:20;;;;;;;;;;;;;;;21.86;38.44;93088.84;4788065;30;20046;-76
2022/06/11 08:52:47;;;;;;;7.93;2.20;;;;;;;21.89;37.53;93086.28;4787219;30;19917;-76
2022/06/11 08:55:13;;;;;;;6.25;1.90;;;;;;;22.20;38.94;93084.72;4787130;30;20036;-76
2022/06/11 08:58:03;;;;;;;4.95;1.90;;;;;;;22.36;37.98;93088.22;4788426;29;20035;-76
2022/06/11 09:00:44;;;;;;;7.78;2.03;;;;;;;22.44;36.85;93092.59;4788365;30;20050;-76
2022/06/11 09:03:43;;;;;;;4.38;1.80;;;;;;;22.63;38.75;93086.56;4786270;30;20067;-76
2022/06/11 09:06:27;;;;;;;5.75;1.75;;;;;;;22.56;37.56;93088.28;4785530;29;20506;-76
2022/06/11 09:08:59;;;;;;;4.78;1.63;;;;;;;22.55;36.12;93095.50;4787688;30;20043;-76
2022/06/11 09:11:43;;;;;;;7.00;2.00;;;;;;;22.69;37.07;93091.63;4781907;29;20071;-75
2022/06/11 09:14:39;;;;;;;6.30;1.83;;;;;;;22.54;37.57;93093.97;4782812;30;20448;-76
2022/06/11 09:17:31;;;;;;;3.83;1.60;;;;;;;22.41;36.47;93092.50;4787055;30;20047;-76
2022/06/11 09:20:24;;;;;;;4.25;1.67;;;;;;;22.70;37.41;93087.81;4788057;29;20047;-76
2022/06/11 09:22:53;;;;;;;8.30;2.20;;;;;;;22.79;38.95;93091.88;4788050;30;20104;-76
2022/06/11 09:25:40;;;;;;;6.90;2.53;;;;;;;22.51;37.39;93086.63;4786236;29;20031;-76
2022/06/11 09:28:23;;;;;;;7.88;2.15;;;;;;;22.76;38.85;93089.09;4786585;30;20465;-77
2022/06/11 09:31:16;;;;;;;5.65;2.38;;;;;;;22.60;37.60;93089.91;4781815;30;20559;-76
2022/06/11 09:33:53;;;;;;;5.93;1.90;;;;;;;22.62;39.41;93086.91;4769815;30;20040;-77
2022/06/11 09:36:32;;;;;;;5.65;1.95;;;;;;;22.56;40.10;93089.06;4770157;30;20050;-76
2022/06/11 09:39:34;;;;;;;8.25;2.03;;;;;;;22.75;38.29;93087.56;4770075;30;20039;-76
2022/06/11 09:42:19;;;;;;;5.18;2.00;;;;;;;22.84;38.34;93093.50;4757073;30;20040;-76
2022/06/11 09:45:05;;;;;;;4.80;1.88;;;;;;;22.77;39.13;93093.34;4783349;30;20594;-77
2022/06/11 09:47:53;;;;;;;6.45;1.90;;;;;;;22.72;39.13;93096.25;4769839;30;20499;-76
2022/06/11 09:50:25;;;;;;;4.40;1.75;;;;;;;22.69;39.11;93097.72;4769387;30;20146;-76
2022/06/11 09:53:16;;;;;;;6.05;2.10;;;;;;;22.73;38.99;93092.47;4769487;30;20051;-77
2022/06/11 09:55:50;;;;;;;7.20;2.00;;;;;;;22.57;38.41;93087.94;4768431;30;20494;-77
2022/06/11 09:58:30;;;;;;;4.35;1.58;;;;;;;22.63;38.00;93088.47;4778770;30;20031;-76
2022/06/11 10:01:00;;;;;;;5.50;1.77;;;;;;;22.69;36.68;93091.63;4786336;29;20039;-77
2022/06/11 10:03:45;;;;;;;4.45;1.73;;;;;;;23.04;39.79;93080.97;4782771;29;20364;-79
2022/06/11 10:06:18;;;;;;;5.20;1.73;;;;;;;23.36;38.06;93089.63;4780779;29;20047;-77
2022/06/11 10:08:57;;;;;;;4.90;1.60;;;;;;;23.63;38.64;93084.44;4787802;30;20081;-77
2022/06/11 10:11:43;;;;;;;6.22;1.63;;;;;;;23.73;35.75;93088.44;4785189;30;20035;-77
2022/06/11 10:14:29;;;;;;;6.57;2.00;;;;;;;23.87;36.53;93094.84;4788658;30;20043;-77
2022/06/11 10:17:22;;;;;;;3.20;1.58;;;;;;;23.77;37.45;93083.94;4786905;29;20039;-78
2022/06/11 10:20:10;;;;;;;4.75;1.60;;;;;;;23.78;36.85;93080.94;4776662;29;20035;-78
2022/06/11 10:22:44;;;;;;;4.82;1.90;;;;;;;23.79;35.99;93085.13;4770909;30;20043;-78
2022/06/11 10:25:25;;;;;;;4.40;1.63;;;;;;;23.56;37.12;93074.38;4769336;30;20525;-77
2022/06/11 10:28:20;;;;;;;4.40;1.60;;;;;;;23.77;36.79;93082.03;4773136;29;20055;-80
2022/06/11 10:30:50;;;;;;;6.30;1.90;;;;;;;23.56;37.70;93073.63;4782226;30;20566;-78
2022/06/11 10:33:25;;;;;;;7.38;1.80;;;;;;;23.68;38.88;93076.88;4786867;29;20071;-77
2022/06/11 10:36:20;;;;;;;2.70;1.45;;;;;;;24.10;37.19;93080.72;4787117;29;20100;-77
2022/06/11 10:38:57;;;;;;;3.70;1.58;;;;;;;23.74;34.83;93069.38;4782821;29;20490;-76
2022/06/11 10:41:32;;;;;;;3.80;1.52;;;;;;;23.76;35.46;93069.06;4783859;29;20054;-77
2022/06/11 10:44:15;;;;;;;5.47;2.72;;;;;;;23.79;37.33;93071.00;4766572;30;20047;-76
2022/06/11 10:46:41;;;;;;;3.50;1.70;;;;;;;23.52;38.21;93068.19;4786373;29;20081;-78
2022/06/11 10:49:15;;;;;;;4.32;1.58;;;;;;;23.61;36.53;93063.41;4782706;29;20490;-77
2022/06/11 10:51:47;;;;;;;6.90;1.67;;;;;;;23.74;37.57;93069.38;4784910;29;20517;-77
2022/06/11 10:54:20;;;;;;;4.68;1.50;;;;;;;23.84;38.21;93060.78;4786635;29;20035;-77
2022/06/11 10:56:58;;;;;;;2.25;1.25;;;;;;;23.73;37.34;93059.78;4788224;29;20035;-79
2022/06/11 10:59:35;;;;;;;5.53;1.77;;;;;;;23.98;38.07;93062.16;4770806;30;20067;-77
2022/06/11 11:02:19;;;;;;;3.45;1.50;;;;;;;24.29;37.79;93069.94;4775786;29;21866;-77
2022/06/11 11:05:06;;;;;;;2.80;1.40;;;;;;;24.37;35.45;93062.06;4780927;29;20039;-77
2022/06/11 11:07:54;;;;;;;2.83;1.30;;;;;;;24.48;38.07;93063.78;4783917;29;20062;-77
2022/06/11 11:10:34;;;;;;;3.88;1.40;;;;;;;24.72;36.55;93054.59;4783933;29;20375;-76
2022/06/11 11:13:03;;;;;;;3.25;1.42;;;;;;;24.55;36.32;93057.78;4768919;30;20035;-78
2022/06/11 11:15:41;;;;;;;3.72;1.42;;;;;;;24.49;36.65;93056.53;4780045;29;20036;-78
2022/06/11 11:18:16;;;;;;;2.47;1.52;;;;;;;24.54;37.00;93056.22;4784770;30;20130;-77
2022/06/11 11:20:43;;;;;;;3.03;1.35;;;;;;;24.54;36.85;93058.13;4785300;29;20047;-78
2022/06/11 11:23:20;;;;;;;2.13;1.27;;;;;;;24.62;37.66;93052.53;4768169;29;20097;-78
2022/06/11 11:25:53;;;;;;;5.35;1.50;;;;;;;24.80;37.41;93055.44;4780533;29;20400;-77
2022/06/11 11:28:50;;;;;;;3.30;1.50;;;;;;;24.91;37.37;93050.25;4780167;29;20070;-77
2022/06/11 11:31:45;;;;;;;6.00;1.40;;;;;;;25.07;35.31;93040.13;4775107;30;20088;-76
2022/06/11 11:34:10;;;;;;;7.57;1.50;;;;;;;24.93;35.79;93045.31;4768216;29;20070;-77
2022/06/11 11:36:37;;;;;;;3.78;1.30;;;;;;;25.07;37.56;93042.81;4782598;29;20039;-77
2022/06/11 11:39:30;;;;;;;5.28;1.60;;;;;;;24.97;36.28;93051.47;4781773;29;20047;-76
2022/06/11 11:42:08;;;;;;;4.60;1.40;;;;;;;25.13;37.93;93044.03;4780293;29;20070;-78
2022/06/11 11:44:41;;;;;;;3.35;1.60;;;;;;;25.36;37.04;93040.50;4782179;30;20139;-78
2022/06/11 11:47:15;;;;;;;5.50;1.65;;;;;;;25.44;35.22;93044.03;4787298;29;20080;-77
2022/06/11 11:49:46;;;;;;;3.60;1.63;;;;;;;25.49;37.69;93044.47;4785158;30;20043;-75
2022/06/11 11:52:18;;;;;;;2.70;1.60;;;;;;;25.66;37.49;93040.44;4792456;29;20050;-77
2022/06/11 11:54:59;;;;;;;2.55;1.45;;;;;;;25.64;36.33;93041.94;4785045;29;20050;-77
2022/06/11 11:57:30;;;;;;;2.13;1.25;;;;;;;25.70;37.05;93038.56;4783252;29;20042;-80
2022/06/11 12:00:00;;;;;;;5.60;1.60;;;;;;;25.57;37.11;93033.84;4789919;30;20693;-80